Аэропорт: Омск-Центральный. Омск

ICAO: UNOO

METAR:
2019/01/21 23:00
UNOO 212300Z 22002MPS CAVOK M15/M16 Q1024 R25/810545 NOSIG RMK QFE760
METAR:
2019/01/21 21:21
TAF UNOO 211951Z 2121/2221 25003G08MPS 6000 BKN010 
      BECMG 2201/2203 20005G12MPS